sensor_id;sensor_type;location;lat;lon;timestamp;P1;durP1;ratioP1;P2;durP2;ratioP2
6392;SDS011;3229;42.674;23.282;2024-01-07T00:00:18;14.13;;;9.50;;
6392;SDS011;3229;42.674;23.282;2024-01-07T00:02:45;13.10;;;9.27;;
6392;SDS011;3229;42.674;23.282;2024-01-07T00:05:13;16.77;;;9.97;;
6392;SDS011;3229;42.674;23.282;2024-01-07T00:07:40;17.37;;;11.00;;
6392;SDS011;3229;42.674;23.282;2024-01-07T00:10:07;13.60;;;10.13;;
6392;SDS011;3229;42.674;23.282;2024-01-07T00:12:35;15.20;;;9.03;;
6392;SDS011;3229;42.674;23.282;2024-01-07T00:15:02;14.10;;;9.23;;
6392;SDS011;3229;42.674;23.282;2024-01-07T00:17:29;14.13;;;9.53;;
6392;SDS011;3229;42.674;23.282;2024-01-07T00:19:55;15.60;;;9.03;;
6392;SDS011;3229;42.674;23.282;2024-01-07T00:22:24;18.87;;;10.70;;
6392;SDS011;3229;42.674;23.282;2024-01-07T00:24:51;16.30;;;10.13;;
6392;SDS011;3229;42.674;23.282;2024-01-07T00:27:18;12.80;;;9.00;;
6392;SDS011;3229;42.674;23.282;2024-01-07T00:29:44;14.87;;;10.13;;
6392;SDS011;3229;42.674;23.282;2024-01-07T00:32:11;16.27;;;10.63;;
6392;SDS011;3229;42.674;23.282;2024-01-07T00:34:38;17.43;;;9.50;;
6392;SDS011;3229;42.674;23.282;2024-01-07T00:37:05;12.63;;;8.47;;
6392;SDS011;3229;42.674;23.282;2024-01-07T00:39:33;11.90;;;8.47;;
6392;SDS011;3229;42.674;23.282;2024-01-07T00:42:00;12.67;;;8.80;;
6392;SDS011;3229;42.674;23.282;2024-01-07T00:44:26;13.00;;;7.90;;
6392;SDS011;3229;42.674;23.282;2024-01-07T00:46:53;14.07;;;9.13;;
6392;SDS011;3229;42.674;23.282;2024-01-07T00:49:23;16.53;;;9.20;;
6392;SDS011;3229;42.674;23.282;2024-01-07T00:51:49;15.77;;;9.13;;
6392;SDS011;3229;42.674;23.282;2024-01-07T00:54:16;12.40;;;8.90;;
6392;SDS011;3229;42.674;23.282;2024-01-07T00:56:45;12.40;;;8.60;;
6392;SDS011;3229;42.674;23.282;2024-01-07T00:59:11;15.43;;;9.40;;
6392;SDS011;3229;42.674;23.282;2024-01-07T01:01:38;12.57;;;8.57;;
6392;SDS011;3229;42.674;23.282;2024-01-07T01:04:05;12.13;;;8.83;;
6392;SDS011;3229;42.674;23.282;2024-01-07T01:06:32;16.27;;;9.43;;
6392;SDS011;3229;42.674;23.282;2024-01-07T01:08:59;12.00;;;9.03;;
6392;SDS011;3229;42.674;23.282;2024-01-07T01:11:25;14.27;;;9.03;;
6392;SDS011;3229;42.674;23.282;2024-01-07T01:13:54;14.47;;;9.43;;
6392;SDS011;3229;42.674;23.282;2024-01-07T01:16:21;11.10;;;8.60;;
6392;SDS011;3229;42.674;23.282;2024-01-07T01:18:49;14.40;;;9.33;;
6392;SDS011;3229;42.674;23.282;2024-01-07T01:21:15;14.33;;;10.00;;
6392;SDS011;3229;42.674;23.282;2024-01-07T01:23:43;12.33;;;8.90;;
6392;SDS011;3229;42.674;23.282;2024-01-07T01:26:10;12.87;;;8.97;;
6392;SDS011;3229;42.674;23.282;2024-01-07T01:28:37;14.17;;;8.73;;
6392;SDS011;3229;42.674;23.282;2024-01-07T01:31:05;11.07;;;7.87;;
6392;SDS011;3229;42.674;23.282;2024-01-07T01:33:32;14.00;;;8.37;;
6392;SDS011;3229;42.674;23.282;2024-01-07T01:35:58;10.83;;;8.10;;
6392;SDS011;3229;42.674;23.282;2024-01-07T01:38:25;12.90;;;8.77;;
6392;SDS011;3229;42.674;23.282;2024-01-07T01:40:52;12.10;;;8.77;;
6392;SDS011;3229;42.674;23.282;2024-01-07T01:43:22;12.77;;;8.67;;
6392;SDS011;3229;42.674;23.282;2024-01-07T01:45:50;12.43;;;8.30;;
6392;SDS011;3229;42.674;23.282;2024-01-07T01:48:18;15.73;;;10.17;;
6392;SDS011;3229;42.674;23.282;2024-01-07T01:50:46;12.50;;;8.67;;
6392;SDS011;3229;42.674;23.282;2024-01-07T01:53:13;13.67;;;9.37;;
6392;SDS011;3229;42.674;23.282;2024-01-07T01:55:41;15.67;;;8.90;;
6392;SDS011;3229;42.674;23.282;2024-01-07T01:58:08;13.50;;;9.57;;
6392;SDS011;3229;42.674;23.282;2024-01-07T02:00:35;13.67;;;9.50;;
6392;SDS011;3229;42.674;23.282;2024-01-07T02:03:02;13.23;;;8.27;;
6392;SDS011;3229;42.674;23.282;2024-01-07T02:05:31;13.53;;;9.33;;
6392;SDS011;3229;42.674;23.282;2024-01-07T02:07:58;13.13;;;8.90;;
6392;SDS011;3229;42.674;23.282;2024-01-07T02:10:25;16.50;;;9.23;;
6392;SDS011;3229;42.674;23.282;2024-01-07T02:12:54;14.57;;;9.43;;
6392;SDS011;3229;42.674;23.282;2024-01-07T02:15:20;14.07;;;8.87;;
6392;SDS011;3229;42.674;23.282;2024-01-07T02:17:47;13.67;;;9.27;;
6392;SDS011;3229;42.674;23.282;2024-01-07T02:20:14;12.17;;;8.40;;
6392;SDS011;3229;42.674;23.282;2024-01-07T02:22:42;15.27;;;9.23;;
6392;SDS011;3229;42.674;23.282;2024-01-07T02:25:10;13.50;;;9.60;;
6392;SDS011;3229;42.674;23.282;2024-01-07T02:27:37;13.60;;;8.87;;
6392;SDS011;3229;42.674;23.282;2024-01-07T02:30:04;12.70;;;9.13;;
6392;SDS011;3229;42.674;23.282;2024-01-07T02:32:32;14.13;;;9.67;;
6392;SDS011;3229;42.674;23.282;2024-01-07T02:35:00;14.10;;;10.10;;
6392;SDS011;3229;42.674;23.282;2024-01-07T02:37:27;12.83;;;8.80;;
6392;SDS011;3229;42.674;23.282;2024-01-07T02:39:54;12.97;;;9.00;;
6392;SDS011;3229;42.674;23.282;2024-01-07T02:42:22;11.60;;;9.47;;
6392;SDS011;3229;42.674;23.282;2024-01-07T02:44:49;12.10;;;8.83;;
6392;SDS011;3229;42.674;23.282;2024-01-07T02:47:17;13.17;;;9.10;;
6392;SDS011;3229;42.674;23.282;2024-01-07T02:49:44;12.33;;;8.83;;
6392;SDS011;3229;42.674;23.282;2024-01-07T02:52:11;13.07;;;9.00;;
6392;SDS011;3229;42.674;23.282;2024-01-07T02:54:38;18.23;;;9.47;;
6392;SDS011;3229;42.674;23.282;2024-01-07T02:57:04;11.40;;;8.70;;
6392;SDS011;3229;42.674;23.282;2024-01-07T02:59:33;14.60;;;8.63;;
6392;SDS011;3229;42.674;23.282;2024-01-07T03:01:59;13.33;;;8.83;;
6392;SDS011;3229;42.674;23.282;2024-01-07T03:04:26;10.67;;;7.73;;
6392;SDS011;3229;42.674;23.282;2024-01-07T03:06:53;15.53;;;9.20;;
6392;SDS011;3229;42.674;23.282;2024-01-07T03:09:19;11.77;;;8.40;;
6392;SDS011;3229;42.674;23.282;2024-01-07T03:11:46;11.67;;;7.87;;
6392;SDS011;3229;42.674;23.282;2024-01-07T03:14:13;13.90;;;8.57;;
6392;SDS011;3229;42.674;23.282;2024-01-07T03:16:43;10.63;;;7.80;;
6392;SDS011;3229;42.674;23.282;2024-01-07T03:19:10;12.70;;;8.13;;
6392;SDS011;3229;42.674;23.282;2024-01-07T03:21:36;13.67;;;8.63;;
6392;SDS011;3229;42.674;23.282;2024-01-07T03:24:03;11.73;;;8.10;;
6392;SDS011;3229;42.674;23.282;2024-01-07T03:26:30;13.67;;;8.27;;
6392;SDS011;3229;42.674;23.282;2024-01-07T03:28:58;11.17;;;7.23;;
6392;SDS011;3229;42.674;23.282;2024-01-07T03:31:27;10.87;;;7.73;;
6392;SDS011;3229;42.674;23.282;2024-01-07T03:33:55;14.63;;;7.93;;
6392;SDS011;3229;42.674;23.282;2024-01-07T03:36:22;11.27;;;7.90;;
6392;SDS011;3229;42.674;23.282;2024-01-07T03:38:49;11.47;;;7.60;;
6392;SDS011;3229;42.674;23.282;2024-01-07T03:41:16;10.27;;;7.47;;
6392;SDS011;3229;42.674;23.282;2024-01-07T03:43:44;11.67;;;7.90;;
6392;SDS011;3229;42.674;23.282;2024-01-07T03:46:11;12.73;;;7.07;;
6392;SDS011;3229;42.674;23.282;2024-01-07T03:48:37;12.57;;;7.57;;
6392;SDS011;3229;42.674;23.282;2024-01-07T03:51:05;10.63;;;7.23;;
6392;SDS011;3229;42.674;23.282;2024-01-07T03:53:32;8.43;;;6.60;;
6392;SDS011;3229;42.674;23.282;2024-01-07T03:55:59;9.13;;;6.47;;
6392;SDS011;3229;42.674;23.282;2024-01-07T03:58:26;10.63;;;7.00;;
6392;SDS011;3229;42.674;23.282;2024-01-07T04:00:53;9.87;;;6.17;;
6392;SDS011;3229;42.674;23.282;2024-01-07T04:03:19;9.03;;;6.37;;
6392;SDS011;3229;42.674;23.282;2024-01-07T04:05:46;8.93;;;5.90;;
6392;SDS011;3229;42.674;23.282;2024-01-07T04:08:14;10.30;;;6.23;;
6392;SDS011;3229;42.674;23.282;2024-01-07T04:10:41;7.10;;;5.67;;
6392;SDS011;3229;42.674;23.282;2024-01-07T04:13:08;7.80;;;5.63;;
6392;SDS011;3229;42.674;23.282;2024-01-07T04:15:35;6.60;;;4.97;;
6392;SDS011;3229;42.674;23.282;2024-01-07T04:18:02;7.10;;;5.17;;
6392;SDS011;3229;42.674;23.282;2024-01-07T04:20:29;8.13;;;5.23;;
6392;SDS011;3229;42.674;23.282;2024-01-07T04:22:56;5.57;;;4.43;;
6392;SDS011;3229;42.674;23.282;2024-01-07T04:25:24;6.67;;;4.67;;
6392;SDS011;3229;42.674;23.282;2024-01-07T04:27:51;6.43;;;4.83;;
6392;SDS011;3229;42.674;23.282;2024-01-07T04:30:18;6.27;;;4.17;;
6392;SDS011;3229;42.674;23.282;2024-01-07T04:32:45;8.27;;;4.87;;
6392;SDS011;3229;42.674;23.282;2024-01-07T04:35:12;6.53;;;4.20;;
6392;SDS011;3229;42.674;23.282;2024-01-07T04:37:38;5.17;;;4.27;;
6392;SDS011;3229;42.674;23.282;2024-01-07T04:40:06;9.07;;;4.93;;
6392;SDS011;3229;42.674;23.282;2024-01-07T04:42:35;7.87;;;4.50;;
6392;SDS011;3229;42.674;23.282;2024-01-07T04:45:01;6.40;;;4.60;;
6392;SDS011;3229;42.674;23.282;2024-01-07T04:47:29;4.90;;;4.40;;
6392;SDS011;3229;42.674;23.282;2024-01-07T04:49:56;5.13;;;4.63;;
6392;SDS011;3229;42.674;23.282;2024-01-07T04:52:24;8.20;;;4.43;;
6392;SDS011;3229;42.674;23.282;2024-01-07T04:54:51;5.27;;;4.23;;
6392;SDS011;3229;42.674;23.282;2024-01-07T04:57:18;10.10;;;4.33;;
6392;SDS011;3229;42.674;23.282;2024-01-07T04:59:46;6.07;;;4.57;;
6392;SDS011;3229;42.674;23.282;2024-01-07T05:02:14;4.77;;;3.80;;
6392;SDS011;3229;42.674;23.282;2024-01-07T05:04:42;6.20;;;4.00;;
6392;SDS011;3229;42.674;23.282;2024-01-07T05:07:08;6.60;;;4.10;;
6392;SDS011;3229;42.674;23.282;2024-01-07T05:09:35;5.93;;;4.20;;
6392;SDS011;3229;42.674;23.282;2024-01-07T05:12:02;6.50;;;4.27;;
6392;SDS011;3229;42.674;23.282;2024-01-07T05:14:29;4.90;;;4.23;;
6392;SDS011;3229;42.674;23.282;2024-01-07T05:16:57;5.40;;;4.43;;
6392;SDS011;3229;42.674;23.282;2024-01-07T05:19:24;7.70;;;4.27;;
6392;SDS011;3229;42.674;23.282;2024-01-07T05:21:51;7.17;;;4.40;;
6392;SDS011;3229;42.674;23.282;2024-01-07T05:24:18;6.53;;;4.63;;
6392;SDS011;3229;42.674;23.282;2024-01-07T05:26:44;5.33;;;4.20;;
6392;SDS011;3229;42.674;23.282;2024-01-07T05:29:11;6.10;;;3.73;;
6392;SDS011;3229;42.674;23.282;2024-01-07T05:31:38;5.40;;;4.10;;
6392;SDS011;3229;42.674;23.282;2024-01-07T05:34:06;8.57;;;4.00;;
6392;SDS011;3229;42.674;23.282;2024-01-07T05:36:33;6.13;;;4.43;;
6392;SDS011;3229;42.674;23.282;2024-01-07T05:39:00;5.53;;;4.33;;
6392;SDS011;3229;42.674;23.282;2024-01-07T05:41:29;6.53;;;4.30;;
6392;SDS011;3229;42.674;23.282;2024-01-07T05:43:56;8.37;;;5.20;;
6392;SDS011;3229;42.674;23.282;2024-01-07T05:46:22;6.47;;;4.33;;
6392;SDS011;3229;42.674;23.282;2024-01-07T05:48:49;5.87;;;4.03;;
6392;SDS011;3229;42.674;23.282;2024-01-07T05:51:17;5.73;;;4.20;;
6392;SDS011;3229;42.674;23.282;2024-01-07T05:53:44;4.80;;;4.10;;
6392;SDS011;3229;42.674;23.282;2024-01-07T05:56:11;6.00;;;4.43;;
6392;SDS011;3229;42.674;23.282;2024-01-07T05:58:38;7.37;;;4.20;;
6392;SDS011;3229;42.674;23.282;2024-01-07T06:01:05;5.23;;;4.27;;
6392;SDS011;3229;42.674;23.282;2024-01-07T06:03:33;6.00;;;4.53;;
6392;SDS011;3229;42.674;23.282;2024-01-07T06:06:00;6.40;;;5.00;;
6392;SDS011;3229;42.674;23.282;2024-01-07T06:08:29;6.53;;;4.50;;
6392;SDS011;3229;42.674;23.282;2024-01-07T06:10:55;7.80;;;4.43;;
6392;SDS011;3229;42.674;23.282;2024-01-07T06:13:23;6.50;;;4.97;;
6392;SDS011;3229;42.674;23.282;2024-01-07T06:15:50;4.67;;;3.97;;
6392;SDS011;3229;42.674;23.282;2024-01-07T06:18:18;7.83;;;4.53;;
6392;SDS011;3229;42.674;23.282;2024-01-07T06:20:45;6.33;;;3.83;;
6392;SDS011;3229;42.674;23.282;2024-01-07T06:23:12;5.63;;;3.93;;
6392;SDS011;3229;42.674;23.282;2024-01-07T06:25:40;4.47;;;4.00;;
6392;SDS011;3229;42.674;23.282;2024-01-07T06:28:07;6.93;;;4.67;;
6392;SDS011;3229;42.674;23.282;2024-01-07T06:30:35;5.50;;;4.10;;
6392;SDS011;3229;42.674;23.282;2024-01-07T06:33:02;6.00;;;4.47;;
6392;SDS011;3229;42.674;23.282;2024-01-07T06:35:30;6.03;;;4.93;;
6392;SDS011;3229;42.674;23.282;2024-01-07T06:37:57;6.37;;;4.27;;
6392;SDS011;3229;42.674;23.282;2024-01-07T06:40:23;5.63;;;4.30;;
6392;SDS011;3229;42.674;23.282;2024-01-07T06:42:52;5.53;;;4.57;;
6392;SDS011;3229;42.674;23.282;2024-01-07T06:45:18;7.67;;;4.23;;
6392;SDS011;3229;42.674;23.282;2024-01-07T06:47:45;6.27;;;4.10;;
6392;SDS011;3229;42.674;23.282;2024-01-07T06:50:12;9.57;;;5.07;;
6392;SDS011;3229;42.674;23.282;2024-01-07T06:52:39;5.07;;;4.57;;
6392;SDS011;3229;42.674;23.282;2024-01-07T06:55:06;6.20;;;4.40;;
6392;SDS011;3229;42.674;23.282;2024-01-07T06:57:33;5.13;;;4.57;;
6392;SDS011;3229;42.674;23.282;2024-01-07T07:00:01;5.10;;;4.20;;
6392;SDS011;3229;42.674;23.282;2024-01-07T07:02:29;7.33;;;4.70;;
6392;SDS011;3229;42.674;23.282;2024-01-07T07:04:56;6.20;;;4.13;;
6392;SDS011;3229;42.674;23.282;2024-01-07T07:07:23;5.93;;;4.57;;
6392;SDS011;3229;42.674;23.282;2024-01-07T07:09:50;5.17;;;4.33;;
6392;SDS011;3229;42.674;23.282;2024-01-07T07:12:17;5.33;;;4.03;;
6392;SDS011;3229;42.674;23.282;2024-01-07T07:14:44;5.70;;;4.37;;
6392;SDS011;3229;42.674;23.282;2024-01-07T07:17:13;4.57;;;4.17;;
6392;SDS011;3229;42.674;23.282;2024-01-07T07:19:40;7.00;;;4.43;;
6392;SDS011;3229;42.674;23.282;2024-01-07T07:22:06;7.87;;;5.10;;
6392;SDS011;3229;42.674;23.282;2024-01-07T07:24:33;8.03;;;4.67;;
6392;SDS011;3229;42.674;23.282;2024-01-07T07:27:00;7.50;;;5.17;;
6392;SDS011;3229;42.674;23.282;2024-01-07T07:29:27;6.80;;;4.57;;
6392;SDS011;3229;42.674;23.282;2024-01-07T07:31:54;6.00;;;4.70;;
6392;SDS011;3229;42.674;23.282;2024-01-07T07:34:22;7.03;;;5.43;;
6392;SDS011;3229;42.674;23.282;2024-01-07T07:36:49;6.27;;;4.50;;
6392;SDS011;3229;42.674;23.282;2024-01-07T07:39:15;5.87;;;4.93;;
6392;SDS011;3229;42.674;23.282;2024-01-07T07:41:42;6.27;;;5.10;;
6392;SDS011;3229;42.674;23.282;2024-01-07T07:44:09;4.80;;;4.33;;
6392;SDS011;3229;42.674;23.282;2024-01-07T07:46:35;6.53;;;4.50;;
6392;SDS011;3229;42.674;23.282;2024-01-07T07:49:02;10.40;;;5.33;;
6392;SDS011;3229;42.674;23.282;2024-01-07T07:51:30;6.30;;;4.60;;
6392;SDS011;3229;42.674;23.282;2024-01-07T07:53:56;6.40;;;5.03;;
6392;SDS011;3229;42.674;23.282;2024-01-07T07:56:23;6.20;;;4.77;;
6392;SDS011;3229;42.674;23.282;2024-01-07T07:58:50;6.63;;;4.60;;
6392;SDS011;3229;42.674;23.282;2024-01-07T08:01:17;5.47;;;4.87;;
6392;SDS011;3229;42.674;23.282;2024-01-07T08:03:44;5.93;;;5.33;;
6392;SDS011;3229;42.674;23.282;2024-01-07T08:06:11;7.17;;;4.53;;
6392;SDS011;3229;42.674;23.282;2024-01-07T08:08:39;6.53;;;5.07;;
6392;SDS011;3229;42.674;23.282;2024-01-07T08:11:06;10.17;;;5.60;;
6392;SDS011;3229;42.674;23.282;2024-01-07T08:13:35;6.80;;;5.07;;
6392;SDS011;3229;42.674;23.282;2024-01-07T08:16:03;6.50;;;5.33;;
6392;SDS011;3229;42.674;23.282;2024-01-07T08:18:31;8.23;;;5.23;;
6392;SDS011;3229;42.674;23.282;2024-01-07T08:20:58;6.53;;;4.97;;
6392;SDS011;3229;42.674;23.282;2024-01-07T08:23:25;6.40;;;5.07;;
6392;SDS011;3229;42.674;23.282;2024-01-07T08:25:54;6.90;;;5.10;;
6392;SDS011;3229;42.674;23.282;2024-01-07T08:28:20;7.60;;;5.10;;
6392;SDS011;3229;42.674;23.282;2024-01-07T08:30:47;6.57;;;5.30;;
6392;SDS011;3229;42.674;23.282;2024-01-07T08:33:16;7.10;;;4.90;;
6392;SDS011;3229;42.674;23.282;2024-01-07T08:35:43;5.87;;;4.60;;
6392;SDS011;3229;42.674;23.282;2024-01-07T08:38:10;6.00;;;5.03;;
6392;SDS011;3229;42.674;23.282;2024-01-07T08:40:37;6.70;;;4.83;;
6392;SDS011;3229;42.674;23.282;2024-01-07T08:43:06;7.77;;;5.60;;
6392;SDS011;3229;42.674;23.282;2024-01-07T08:45:33;6.13;;;5.13;;
6392;SDS011;3229;42.674;23.282;2024-01-07T08:48:00;6.43;;;5.07;;
6392;SDS011;3229;42.674;23.282;2024-01-07T08:50:27;5.63;;;5.03;;
6392;SDS011;3229;42.674;23.282;2024-01-07T08:52:55;7.50;;;5.00;;
6392;SDS011;3229;42.674;23.282;2024-01-07T08:55:23;8.10;;;5.43;;
6392;SDS011;3229;42.674;23.282;2024-01-07T08:57:50;5.87;;;5.00;;
6392;SDS011;3229;42.674;23.282;2024-01-07T09:00:19;9.87;;;5.30;;
6392;SDS011;3229;42.674;23.282;2024-01-07T09:02:50;7.80;;;5.00;;
6392;SDS011;3229;42.674;23.282;2024-01-07T09:05:17;5.43;;;4.60;;
6392;SDS011;3229;42.674;23.282;2024-01-07T09:07:44;6.00;;;5.30;;
6392;SDS011;3229;42.674;23.282;2024-01-07T09:10:11;7.17;;;5.10;;
6392;SDS011;3229;42.674;23.282;2024-01-07T09:12:38;7.57;;;4.97;;
6392;SDS011;3229;42.674;23.282;2024-01-07T09:15:06;6.70;;;4.47;;
6392;SDS011;3229;42.674;23.282;2024-01-07T09:17:35;5.43;;;4.63;;
6392;SDS011;3229;42.674;23.282;2024-01-07T09:20:03;5.67;;;4.57;;
6392;SDS011;3229;42.674;23.282;2024-01-07T09:22:32;5.90;;;4.40;;
6392;SDS011;3229;42.674;23.282;2024-01-07T09:25:00;4.87;;;4.10;;
6392;SDS011;3229;42.674;23.282;2024-01-07T09:27:28;7.27;;;4.77;;
6392;SDS011;3229;42.674;23.282;2024-01-07T09:29:55;6.23;;;4.30;;
6392;SDS011;3229;42.674;23.282;2024-01-07T09:32:22;5.00;;;4.50;;
6392;SDS011;3229;42.674;23.282;2024-01-07T09:34:50;5.00;;;4.50;;
6392;SDS011;3229;42.674;23.282;2024-01-07T09:37:17;6.70;;;4.83;;
6392;SDS011;3229;42.674;23.282;2024-01-07T09:39:44;5.37;;;4.53;;
6392;SDS011;3229;42.674;23.282;2024-01-07T09:42:12;5.00;;;4.20;;
6392;SDS011;3229;42.674;23.282;2024-01-07T09:44:40;6.40;;;4.60;;
6392;SDS011;3229;42.674;23.282;2024-01-07T09:47:10;5.10;;;4.33;;
6392;SDS011;3229;42.674;23.282;2024-01-07T09:49:37;5.43;;;4.70;;
6392;SDS011;3229;42.674;23.282;2024-01-07T09:52:06;5.50;;;5.00;;
6392;SDS011;3229;42.674;23.282;2024-01-07T09:54:34;6.53;;;5.20;;
6392;SDS011;3229;42.674;23.282;2024-01-07T09:57:03;4.87;;;4.37;;
6392;SDS011;3229;42.674;23.282;2024-01-07T09:59:32;5.37;;;4.83;;
6392;SDS011;3229;42.674;23.282;2024-01-07T10:02:00;5.13;;;4.63;;
6392;SDS011;3229;42.674;23.282;2024-01-07T10:04:27;4.93;;;4.43;;
6392;SDS011;3229;42.674;23.282;2024-01-07T10:06:54;6.83;;;5.30;;
6392;SDS011;3229;42.674;23.282;2024-01-07T10:09:23;6.93;;;5.10;;
6392;SDS011;3229;42.674;23.282;2024-01-07T10:11:51;6.40;;;4.57;;
6392;SDS011;3229;42.674;23.282;2024-01-07T10:14:18;6.87;;;4.70;;
6392;SDS011;3229;42.674;23.282;2024-01-07T10:16:47;4.23;;;3.67;;
6392;SDS011;3229;42.674;23.282;2024-01-07T10:19:17;5.63;;;4.23;;
6392;SDS011;3229;42.674;23.282;2024-01-07T10:21:47;5.77;;;4.37;;
6392;SDS011;3229;42.674;23.282;2024-01-07T10:24:32;11.80;;;6.40;;
6392;SDS011;3229;42.674;23.282;2024-01-07T10:27:03;14.50;;;6.30;;
6392;SDS011;3229;42.674;23.282;2024-01-07T10:29:30;10.97;;;6.17;;
6392;SDS011;3229;42.674;23.282;2024-01-07T10:31:57;8.30;;;4.57;;
6392;SDS011;3229;42.674;23.282;2024-01-07T10:34:27;7.87;;;3.70;;
6392;SDS011;3229;42.674;23.282;2024-01-07T10:36:55;7.83;;;3.97;;
6392;SDS011;3229;42.674;23.282;2024-01-07T10:39:24;7.83;;;4.77;;
6392;SDS011;3229;42.674;23.282;2024-01-07T10:41:53;11.83;;;5.10;;
6392;SDS011;3229;42.674;23.282;2024-01-07T10:44:23;8.73;;;4.83;;
6392;SDS011;3229;42.674;23.282;2024-01-07T10:46:52;7.15;;;4.80;;
6392;SDS011;3229;42.674;23.282;2024-01-07T10:49:21;7.00;;;5.20;;
6392;SDS011;3229;42.674;23.282;2024-01-07T10:51:50;6.13;;;4.87;;
6392;SDS011;3229;42.674;23.282;2024-01-07T10:54:29;7.45;;;5.03;;
6392;SDS011;3229;42.674;23.282;2024-01-07T10:57:00;5.27;;;4.63;;
6392;SDS011;3229;42.674;23.282;2024-01-07T10:59:33;6.47;;;5.07;;
6392;SDS011;3229;42.674;23.282;2024-01-07T11:02:01;6.73;;;4.77;;
6392;SDS011;3229;42.674;23.282;2024-01-07T11:04:30;6.10;;;4.83;;
6392;SDS011;3229;42.674;23.282;2024-01-07T11:07:05;7.10;;;4.72;;
6392;SDS011;3229;42.674;23.282;2024-01-07T11:09:45;6.57;;;4.63;;
6392;SDS011;3229;42.674;23.282;2024-01-07T11:12:21;7.65;;;4.43;;
6392;SDS011;3229;42.674;23.282;2024-01-07T11:14:49;7.22;;;4.93;;
6392;SDS011;3229;42.674;23.282;2024-01-07T11:17:39;6.72;;;4.40;;
6392;SDS011;3229;42.674;23.282;2024-01-07T11:20:07;6.77;;;4.90;;
6392;SDS011;3229;42.674;23.282;2024-01-07T11:22:40;5.70;;;4.53;;
6392;SDS011;3229;42.674;23.282;2024-01-07T11:27:57;5.88;;;4.68;;
6392;SDS011;3229;42.674;23.282;2024-01-07T11:30:25;5.83;;;4.13;;
6392;SDS011;3229;42.674;23.282;2024-01-07T11:32:58;7.33;;;4.40;;
6392;SDS011;3229;42.674;23.282;2024-01-07T11:38:23;5.33;;;4.23;;
6392;SDS011;3229;42.674;23.282;2024-01-07T11:40:49;6.70;;;4.17;;
6392;SDS011;3229;42.674;23.282;2024-01-07T11:43:19;5.50;;;3.87;;
6392;SDS011;3229;42.674;23.282;2024-01-07T11:45:46;6.43;;;3.80;;
6392;SDS011;3229;42.674;23.282;2024-01-07T11:48:13;4.23;;;3.40;;
6392;SDS011;3229;42.674;23.282;2024-01-07T11:50:41;4.97;;;4.23;;
6392;SDS011;3229;42.674;23.282;2024-01-07T11:53:09;5.60;;;4.30;;
6392;SDS011;3229;42.674;23.282;2024-01-07T11:55:38;5.33;;;3.97;;
6392;SDS011;3229;42.674;23.282;2024-01-07T11:58:04;5.33;;;4.03;;
6392;SDS011;3229;42.674;23.282;2024-01-07T12:00:33;6.10;;;4.23;;
6392;SDS011;3229;42.674;23.282;2024-01-07T12:03:00;4.63;;;4.10;;
6392;SDS011;3229;42.674;23.282;2024-01-07T12:05:27;7.50;;;4.10;;
6392;SDS011;3229;42.674;23.282;2024-01-07T12:07:56;6.30;;;4.23;;
6392;SDS011;3229;42.674;23.282;2024-01-07T12:10:23;5.27;;;3.90;;
6392;SDS011;3229;42.674;23.282;2024-01-07T12:12:50;6.53;;;4.03;;
6392;SDS011;3229;42.674;23.282;2024-01-07T12:15:18;6.03;;;3.80;;
6392;SDS011;3229;42.674;23.282;2024-01-07T12:17:58;6.97;;;3.40;;
6392;SDS011;3229;42.674;23.282;2024-01-07T12:20:26;6.13;;;4.10;;
6392;SDS011;3229;42.674;23.282;2024-01-07T12:22:55;5.03;;;4.17;;
6392;SDS011;3229;42.674;23.282;2024-01-07T12:25:22;6.37;;;3.60;;
6392;SDS011;3229;42.674;23.282;2024-01-07T12:27:50;5.00;;;4.03;;
6392;SDS011;3229;42.674;23.282;2024-01-07T12:30:23;7.27;;;4.30;;
6392;SDS011;3229;42.674;23.282;2024-01-07T12:32:51;5.73;;;4.20;;
6392;SDS011;3229;42.674;23.282;2024-01-07T12:35:19;4.27;;;3.83;;
6392;SDS011;3229;42.674;23.282;2024-01-07T12:37:47;5.37;;;3.47;;
6392;SDS011;3229;42.674;23.282;2024-01-07T12:40:14;8.93;;;3.73;;
6392;SDS011;3229;42.674;23.282;2024-01-07T12:42:41;4.73;;;4.20;;
6392;SDS011;3229;42.674;23.282;2024-01-07T12:45:11;8.60;;;4.73;;
6392;SDS011;3229;42.674;23.282;2024-01-07T12:47:40;8.10;;;4.00;;
6392;SDS011;3229;42.674;23.282;2024-01-07T12:50:08;5.90;;;3.77;;
6392;SDS011;3229;42.674;23.282;2024-01-07T12:52:37;5.20;;;3.90;;
6392;SDS011;3229;42.674;23.282;2024-01-07T12:55:05;4.43;;;3.60;;
6392;SDS011;3229;42.674;23.282;2024-01-07T12:57:33;3.90;;;3.07;;
6392;SDS011;3229;42.674;23.282;2024-01-07T13:00:00;5.23;;;3.70;;
6392;SDS011;3229;42.674;23.282;2024-01-07T13:02:28;10.23;;;3.83;;
6392;SDS011;3229;42.674;23.282;2024-01-07T13:04:55;6.13;;;4.07;;
6392;SDS011;3229;42.674;23.282;2024-01-07T13:07:22;5.60;;;3.27;;
6392;SDS011;3229;42.674;23.282;2024-01-07T13:09:50;4.90;;;3.70;;
6392;SDS011;3229;42.674;23.282;2024-01-07T13:12:17;6.20;;;3.70;;
6392;SDS011;3229;42.674;23.282;2024-01-07T13:14:44;4.73;;;3.47;;
6392;SDS011;3229;42.674;23.282;2024-01-07T13:17:12;3.73;;;3.33;;
6392;SDS011;3229;42.674;23.282;2024-01-07T13:19:39;7.93;;;3.63;;
6392;SDS011;3229;42.674;23.282;2024-01-07T13:22:06;6.23;;;3.33;;
6392;SDS011;3229;42.674;23.282;2024-01-07T13:24:34;4.33;;;3.50;;
6392;SDS011;3229;42.674;23.282;2024-01-07T13:27:02;5.50;;;3.57;;
6392;SDS011;3229;42.674;23.282;2024-01-07T13:29:29;3.33;;;2.83;;
6392;SDS011;3229;42.674;23.282;2024-01-07T13:31:56;3.97;;;3.30;;
6392;SDS011;3229;42.674;23.282;2024-01-07T13:34:23;5.57;;;3.50;;
6392;SDS011;3229;42.674;23.282;2024-01-07T13:36:50;5.50;;;3.70;;
6392;SDS011;3229;42.674;23.282;2024-01-07T13:39:17;6.07;;;3.90;;
6392;SDS011;3229;42.674;23.282;2024-01-07T13:41:44;4.53;;;3.77;;
6392;SDS011;3229;42.674;23.282;2024-01-07T13:44:12;4.20;;;3.50;;
6392;SDS011;3229;42.674;23.282;2024-01-07T13:46:43;4.90;;;3.80;;
6392;SDS011;3229;42.674;23.282;2024-01-07T13:49:10;4.00;;;3.60;;
6392;SDS011;3229;42.674;23.282;2024-01-07T13:51:37;5.60;;;3.87;;
6392;SDS011;3229;42.674;23.282;2024-01-07T13:54:04;5.70;;;3.87;;
6392;SDS011;3229;42.674;23.282;2024-01-07T13:56:32;4.67;;;3.70;;
6392;SDS011;3229;42.674;23.282;2024-01-07T13:59:00;7.33;;;4.03;;
6392;SDS011;3229;42.674;23.282;2024-01-07T14:01:30;6.37;;;3.63;;
6392;SDS011;3229;42.674;23.282;2024-01-07T14:03:57;5.87;;;3.90;;
6392;SDS011;3229;42.674;23.282;2024-01-07T14:06:26;6.73;;;3.80;;
6392;SDS011;3229;42.674;23.282;2024-01-07T14:08:53;6.87;;;4.00;;
6392;SDS011;3229;42.674;23.282;2024-01-07T14:11:20;5.73;;;3.67;;
6392;SDS011;3229;42.674;23.282;2024-01-07T14:13:47;5.43;;;4.30;;
6392;SDS011;3229;42.674;23.282;2024-01-07T14:16:14;5.60;;;3.67;;
6392;SDS011;3229;42.674;23.282;2024-01-07T14:18:42;5.53;;;3.70;;
6392;SDS011;3229;42.674;23.282;2024-01-07T14:21:09;4.40;;;3.67;;
6392;SDS011;3229;42.674;23.282;2024-01-07T14:23:36;4.27;;;3.47;;
6392;SDS011;3229;42.674;23.282;2024-01-07T14:26:02;6.10;;;3.73;;
6392;SDS011;3229;42.674;23.282;2024-01-07T14:28:29;5.17;;;3.80;;
6392;SDS011;3229;42.674;23.282;2024-01-07T14:30:55;6.03;;;3.87;;
6392;SDS011;3229;42.674;23.282;2024-01-07T14:33:24;5.53;;;4.00;;
6392;SDS011;3229;42.674;23.282;2024-01-07T14:35:52;5.80;;;3.73;;
6392;SDS011;3229;42.674;23.282;2024-01-07T14:38:19;5.10;;;4.43;;
6392;SDS011;3229;42.674;23.282;2024-01-07T14:40:46;6.00;;;4.10;;
6392;SDS011;3229;42.674;23.282;2024-01-07T14:43:16;4.83;;;4.30;;
6392;SDS011;3229;42.674;23.282;2024-01-07T14:45:42;5.47;;;3.90;;
6392;SDS011;3229;42.674;23.282;2024-01-07T14:48:09;8.20;;;4.10;;
6392;SDS011;3229;42.674;23.282;2024-01-07T14:50:36;5.93;;;4.33;;
6392;SDS011;3229;42.674;23.282;2024-01-07T14:53:04;7.23;;;4.50;;
6392;SDS011;3229;42.674;23.282;2024-01-07T14:55:31;6.63;;;4.70;;
6392;SDS011;3229;42.674;23.282;2024-01-07T14:57:58;5.07;;;4.07;;
6392;SDS011;3229;42.674;23.282;2024-01-07T15:00:25;6.67;;;4.53;;
6392;SDS011;3229;42.674;23.282;2024-01-07T15:02:52;3.70;;;3.33;;
6392;SDS011;3229;42.674;23.282;2024-01-07T15:05:18;3.93;;;3.23;;